sensor_id;sensor_type;location;lat;lon;timestamp;P1;durP1;ratioP1;P2;durP2;ratioP2
13026;SDS011;6580;42.680;23.324;2023-05-10T00:02:42;6.00;;;4.87;;
13026;SDS011;6580;42.680;23.324;2023-05-10T00:05:29;7.07;;;4.63;;
13026;SDS011;6580;42.680;23.324;2023-05-10T00:08:15;5.93;;;5.27;;
13026;SDS011;6580;42.680;23.324;2023-05-10T00:11:00;5.50;;;5.00;;
13026;SDS011;6580;42.680;23.324;2023-05-10T00:13:46;5.33;;;4.83;;
13026;SDS011;6580;42.680;23.324;2023-05-10T00:16:32;6.57;;;5.03;;
13026;SDS011;6580;42.680;23.324;2023-05-10T00:19:18;5.17;;;4.70;;
13026;SDS011;6580;42.680;23.324;2023-05-10T00:22:04;5.53;;;5.03;;
13026;SDS011;6580;42.680;23.324;2023-05-10T00:24:50;5.10;;;4.60;;
13026;SDS011;6580;42.680;23.324;2023-05-10T00:27:35;6.70;;;5.47;;
13026;SDS011;6580;42.680;23.324;2023-05-10T00:30:21;6.50;;;5.77;;
13026;SDS011;6580;42.680;23.324;2023-05-10T00:33:07;5.57;;;5.07;;
13026;SDS011;6580;42.680;23.324;2023-05-10T00:35:52;6.00;;;5.40;;
13026;SDS011;6580;42.680;23.324;2023-05-10T00:38:42;7.33;;;5.60;;
13026;SDS011;6580;42.680;23.324;2023-05-10T00:41:29;6.53;;;5.80;;
13026;SDS011;6580;42.680;23.324;2023-05-10T00:44:16;7.30;;;5.47;;
13026;SDS011;6580;42.680;23.324;2023-05-10T00:47:02;6.27;;;5.50;;
13026;SDS011;6580;42.680;23.324;2023-05-10T00:49:47;6.70;;;6.00;;
13026;SDS011;6580;42.680;23.324;2023-05-10T00:52:34;6.83;;;5.80;;
13026;SDS011;6580;42.680;23.324;2023-05-10T00:55:21;7.23;;;6.03;;
13026;SDS011;6580;42.680;23.324;2023-05-10T00:58:07;7.43;;;6.07;;
13026;SDS011;6580;42.680;23.324;2023-05-10T01:00:53;7.80;;;6.20;;
13026;SDS011;6580;42.680;23.324;2023-05-10T01:03:40;6.63;;;5.80;;
13026;SDS011;6580;42.680;23.324;2023-05-10T01:06:26;7.43;;;6.57;;
13026;SDS011;6580;42.680;23.324;2023-05-10T01:09:12;7.50;;;6.40;;
13026;SDS011;6580;42.680;23.324;2023-05-10T01:11:59;7.13;;;6.43;;
13026;SDS011;6580;42.680;23.324;2023-05-10T01:14:45;6.80;;;6.10;;
13026;SDS011;6580;42.680;23.324;2023-05-10T01:17:31;7.53;;;6.73;;
13026;SDS011;6580;42.680;23.324;2023-05-10T01:20:18;7.63;;;6.03;;
13026;SDS011;6580;42.680;23.324;2023-05-10T01:23:08;6.73;;;6.03;;
13026;SDS011;6580;42.680;23.324;2023-05-10T01:26:25;6.80;;;5.90;;
13026;SDS011;6580;42.680;23.324;2023-05-10T01:32:55;6.40;;;5.60;;
13026;SDS011;6580;42.680;23.324;2023-05-10T01:35:47;7.67;;;5.93;;
13026;SDS011;6580;42.680;23.324;2023-05-10T01:38:48;5.63;;;5.03;;
13026;SDS011;6580;42.680;23.324;2023-05-10T01:41:39;7.43;;;5.80;;
13026;SDS011;6580;42.680;23.324;2023-05-10T01:44:31;5.77;;;5.13;;
13026;SDS011;6580;42.680;23.324;2023-05-10T01:47:23;6.23;;;5.63;;
13026;SDS011;6580;42.680;23.324;2023-05-10T01:50:18;5.47;;;4.97;;
13026;SDS011;6580;42.680;23.324;2023-05-10T01:53:08;4.40;;;4.00;;
13026;SDS011;6580;42.680;23.324;2023-05-10T01:55:56;7.17;;;4.33;;
13026;SDS011;6580;42.680;23.324;2023-05-10T01:58:44;4.47;;;4.07;;
13026;SDS011;6580;42.680;23.324;2023-05-10T02:01:34;5.60;;;4.73;;
13026;SDS011;6580;42.680;23.324;2023-05-10T02:04:22;4.17;;;3.83;;
13026;SDS011;6580;42.680;23.324;2023-05-10T02:07:12;4.70;;;4.30;;
13026;SDS011;6580;42.680;23.324;2023-05-10T02:09:59;5.20;;;3.70;;
13026;SDS011;6580;42.680;23.324;2023-05-10T02:12:49;5.13;;;4.63;;
13026;SDS011;6580;42.680;23.324;2023-05-10T02:15:39;4.20;;;3.67;;
13026;SDS011;6580;42.680;23.324;2023-05-10T02:18:28;4.57;;;4.17;;
13026;SDS011;6580;42.680;23.324;2023-05-10T02:21:14;4.47;;;4.07;;
13026;SDS011;6580;42.680;23.324;2023-05-10T02:24:04;3.53;;;3.33;;
13026;SDS011;6580;42.680;23.324;2023-05-10T02:26:50;3.87;;;3.57;;
13026;SDS011;6580;42.680;23.324;2023-05-10T02:29:39;5.20;;;3.90;;
13026;SDS011;6580;42.680;23.324;2023-05-10T02:32:27;3.33;;;3.03;;
13026;SDS011;6580;42.680;23.324;2023-05-10T02:35:13;4.73;;;4.10;;
13026;SDS011;6580;42.680;23.324;2023-05-10T02:37:59;3.93;;;3.50;;
13026;SDS011;6580;42.680;23.324;2023-05-10T02:40:50;3.77;;;3.37;;
13026;SDS011;6580;42.680;23.324;2023-05-10T02:43:35;4.13;;;3.83;;
13026;SDS011;6580;42.680;23.324;2023-05-10T02:46:23;4.63;;;3.97;;
13026;SDS011;6580;42.680;23.324;2023-05-10T02:49:08;4.03;;;3.53;;
13026;SDS011;6580;42.680;23.324;2023-05-10T02:51:55;3.23;;;2.90;;
13026;SDS011;6580;42.680;23.324;2023-05-10T02:54:44;3.43;;;3.13;;
13026;SDS011;6580;42.680;23.324;2023-05-10T02:57:33;4.17;;;3.73;;
13026;SDS011;6580;42.680;23.324;2023-05-10T03:00:20;4.03;;;3.50;;
13026;SDS011;6580;42.680;23.324;2023-05-10T03:03:06;4.80;;;3.60;;
13026;SDS011;6580;42.680;23.324;2023-05-10T03:05:52;4.00;;;3.60;;
13026;SDS011;6580;42.680;23.324;2023-05-10T03:08:39;3.63;;;2.90;;
13026;SDS011;6580;42.680;23.324;2023-05-10T03:11:32;4.23;;;3.30;;
13026;SDS011;6580;42.680;23.324;2023-05-10T03:14:37;4.10;;;3.70;;
13026;SDS011;6580;42.680;23.324;2023-05-10T03:17:30;3.73;;;3.40;;
13026;SDS011;6580;42.680;23.324;2023-05-10T03:20:26;3.63;;;3.33;;
13026;SDS011;6580;42.680;23.324;2023-05-10T03:23:21;3.70;;;3.40;;
13026;SDS011;6580;42.680;23.324;2023-05-10T03:26:12;3.83;;;3.43;;
13026;SDS011;6580;42.680;23.324;2023-05-10T03:29:02;4.50;;;3.97;;
13026;SDS011;6580;42.680;23.324;2023-05-10T03:31:51;4.30;;;3.90;;
13026;SDS011;6580;42.680;23.324;2023-05-10T03:34:41;4.43;;;3.77;;
13026;SDS011;6580;42.680;23.324;2023-05-10T03:37:27;3.43;;;3.13;;
13026;SDS011;6580;42.680;23.324;2023-05-10T03:40:14;4.97;;;3.80;;
13026;SDS011;6580;42.680;23.324;2023-05-10T03:42:59;4.97;;;4.13;;
13026;SDS011;6580;42.680;23.324;2023-05-10T03:45:45;5.03;;;4.00;;
13026;SDS011;6580;42.680;23.324;2023-05-10T03:48:32;5.03;;;3.80;;
13026;SDS011;6580;42.680;23.324;2023-05-10T03:51:18;4.30;;;3.90;;
13026;SDS011;6580;42.680;23.324;2023-05-10T03:54:05;4.30;;;3.90;;
13026;SDS011;6580;42.680;23.324;2023-05-10T03:56:51;4.30;;;3.87;;
13026;SDS011;6580;42.680;23.324;2023-05-10T03:59:36;4.17;;;3.77;;
13026;SDS011;6580;42.680;23.324;2023-05-10T04:02:21;5.00;;;4.07;;
13026;SDS011;6580;42.680;23.324;2023-05-10T04:05:09;5.60;;;3.80;;
13026;SDS011;6580;42.680;23.324;2023-05-10T04:07:56;4.77;;;4.20;;
13026;SDS011;6580;42.680;23.324;2023-05-10T04:10:42;3.93;;;3.53;;
13026;SDS011;6580;42.680;23.324;2023-05-10T04:13:27;4.03;;;3.53;;
13026;SDS011;6580;42.680;23.324;2023-05-10T04:16:13;3.77;;;3.43;;
13026;SDS011;6580;42.680;23.324;2023-05-10T04:18:58;5.20;;;4.30;;
13026;SDS011;6580;42.680;23.324;2023-05-10T04:21:46;7.00;;;4.67;;
13026;SDS011;6580;42.680;23.324;2023-05-10T04:24:32;4.10;;;3.70;;
13026;SDS011;6580;42.680;23.324;2023-05-10T04:27:20;4.57;;;4.17;;
13026;SDS011;6580;42.680;23.324;2023-05-10T04:30:08;4.13;;;3.80;;
13026;SDS011;6580;42.680;23.324;2023-05-10T04:32:54;4.67;;;4.27;;
13026;SDS011;6580;42.680;23.324;2023-05-10T04:35:39;4.80;;;4.10;;
13026;SDS011;6580;42.680;23.324;2023-05-10T04:38:30;7.23;;;4.33;;
13026;SDS011;6580;42.680;23.324;2023-05-10T04:41:18;5.30;;;4.30;;
13026;SDS011;6580;42.680;23.324;2023-05-10T04:44:03;4.97;;;4.57;;
13026;SDS011;6580;42.680;23.324;2023-05-10T04:46:49;5.60;;;4.20;;
13026;SDS011;6580;42.680;23.324;2023-05-10T04:49:38;5.27;;;4.27;;
13026;SDS011;6580;42.680;23.324;2023-05-10T04:52:24;5.33;;;4.63;;
13026;SDS011;6580;42.680;23.324;2023-05-10T04:55:11;6.10;;;4.93;;
13026;SDS011;6580;42.680;23.324;2023-05-10T04:57:57;4.47;;;4.07;;
13026;SDS011;6580;42.680;23.324;2023-05-10T05:00:43;5.87;;;4.40;;
13026;SDS011;6580;42.680;23.324;2023-05-10T05:03:29;5.27;;;4.50;;
13026;SDS011;6580;42.680;23.324;2023-05-10T05:06:17;4.70;;;4.13;;
13026;SDS011;6580;42.680;23.324;2023-05-10T05:09:04;5.97;;;4.70;;
13026;SDS011;6580;42.680;23.324;2023-05-10T05:11:58;6.13;;;4.53;;
13026;SDS011;6580;42.680;23.324;2023-05-10T05:14:44;5.83;;;4.83;;
13026;SDS011;6580;42.680;23.324;2023-05-10T05:17:32;6.23;;;4.63;;
13026;SDS011;6580;42.680;23.324;2023-05-10T05:20:20;4.87;;;4.37;;
13026;SDS011;6580;42.680;23.324;2023-05-10T05:23:07;5.80;;;4.57;;
13026;SDS011;6580;42.680;23.324;2023-05-10T05:25:53;5.67;;;5.17;;
13026;SDS011;6580;42.680;23.324;2023-05-10T05:28:40;5.37;;;4.80;;
13026;SDS011;6580;42.680;23.324;2023-05-10T05:31:26;5.17;;;4.67;;
13026;SDS011;6580;42.680;23.324;2023-05-10T05:34:12;5.40;;;4.90;;
13026;SDS011;6580;42.680;23.324;2023-05-10T05:36:58;7.00;;;5.30;;
13026;SDS011;6580;42.680;23.324;2023-05-10T05:39:46;5.03;;;4.53;;
13026;SDS011;6580;42.680;23.324;2023-05-10T05:42:32;6.27;;;5.57;;
13026;SDS011;6580;42.680;23.324;2023-05-10T05:45:21;8.07;;;5.43;;
13026;SDS011;6580;42.680;23.324;2023-05-10T05:48:15;5.63;;;5.07;;
13026;SDS011;6580;42.680;23.324;2023-05-10T05:51:01;5.37;;;4.77;;
13026;SDS011;6580;42.680;23.324;2023-05-10T05:53:46;6.73;;;5.67;;
13026;SDS011;6580;42.680;23.324;2023-05-10T05:56:32;7.60;;;5.73;;
13026;SDS011;6580;42.680;23.324;2023-05-10T05:59:17;6.93;;;5.37;;
13026;SDS011;6580;42.680;23.324;2023-05-10T06:02:04;8.57;;;5.93;;
13026;SDS011;6580;42.680;23.324;2023-05-10T06:04:50;6.20;;;5.47;;
13026;SDS011;6580;42.680;23.324;2023-05-10T06:07:36;5.77;;;5.20;;
13026;SDS011;6580;42.680;23.324;2023-05-10T06:10:25;9.07;;;5.63;;
13026;SDS011;6580;42.680;23.324;2023-05-10T06:13:12;7.80;;;5.77;;
13026;SDS011;6580;42.680;23.324;2023-05-10T06:15:59;7.00;;;5.60;;
13026;SDS011;6580;42.680;23.324;2023-05-10T06:18:46;7.10;;;5.77;;
13026;SDS011;6580;42.680;23.324;2023-05-10T06:21:31;7.80;;;5.73;;
13026;SDS011;6580;42.680;23.324;2023-05-10T06:24:17;7.10;;;5.27;;
13026;SDS011;6580;42.680;23.324;2023-05-10T06:27:05;5.77;;;5.10;;
13026;SDS011;6580;42.680;23.324;2023-05-10T06:29:51;6.27;;;5.33;;
13026;SDS011;6580;42.680;23.324;2023-05-10T06:32:37;5.93;;;5.33;;
13026;SDS011;6580;42.680;23.324;2023-05-10T06:35:24;8.30;;;5.40;;
13026;SDS011;6580;42.680;23.324;2023-05-10T06:38:10;5.57;;;5.03;;
13026;SDS011;6580;42.680;23.324;2023-05-10T06:40:56;7.37;;;5.57;;
13026;SDS011;6580;42.680;23.324;2023-05-10T06:43:42;6.50;;;5.27;;
13026;SDS011;6580;42.680;23.324;2023-05-10T06:46:27;6.00;;;4.97;;
13026;SDS011;6580;42.680;23.324;2023-05-10T06:49:16;5.57;;;4.80;;
13026;SDS011;6580;42.680;23.324;2023-05-10T06:52:03;6.37;;;5.23;;
13026;SDS011;6580;42.680;23.324;2023-05-10T06:54:49;5.70;;;4.80;;
13026;SDS011;6580;42.680;23.324;2023-05-10T06:57:34;5.53;;;4.90;;
13026;SDS011;6580;42.680;23.324;2023-05-10T07:00:20;7.50;;;5.70;;
13026;SDS011;6580;42.680;23.324;2023-05-10T07:03:05;7.27;;;5.87;;
13026;SDS011;6580;42.680;23.324;2023-05-10T07:05:51;6.33;;;5.50;;
13026;SDS011;6580;42.680;23.324;2023-05-10T07:08:38;6.23;;;5.47;;
13026;SDS011;6580;42.680;23.324;2023-05-10T07:11:24;7.70;;;5.03;;
13026;SDS011;6580;42.680;23.324;2023-05-10T07:14:09;6.80;;;5.60;;
13026;SDS011;6580;42.680;23.324;2023-05-10T07:16:55;5.67;;;4.20;;
13026;SDS011;6580;42.680;23.324;2023-05-10T07:19:42;5.60;;;4.80;;
13026;SDS011;6580;42.680;23.324;2023-05-10T07:22:27;7.47;;;5.13;;
13026;SDS011;6580;42.680;23.324;2023-05-10T07:25:14;7.07;;;6.17;;
13026;SDS011;6580;42.680;23.324;2023-05-10T07:27:59;5.90;;;5.10;;
13026;SDS011;6580;42.680;23.324;2023-05-10T07:30:45;6.23;;;5.63;;
13026;SDS011;6580;42.680;23.324;2023-05-10T07:33:30;5.40;;;4.87;;
13026;SDS011;6580;42.680;23.324;2023-05-10T07:36:16;6.10;;;5.33;;
13026;SDS011;6580;42.680;23.324;2023-05-10T07:39:01;6.57;;;4.87;;
13026;SDS011;6580;42.680;23.324;2023-05-10T07:41:48;6.10;;;5.50;;
13026;SDS011;6580;42.680;23.324;2023-05-10T07:44:34;6.30;;;5.03;;
13026;SDS011;6580;42.680;23.324;2023-05-10T07:47:19;5.53;;;5.03;;
13026;SDS011;6580;42.680;23.324;2023-05-10T07:50:06;6.73;;;6.03;;
13026;SDS011;6580;42.680;23.324;2023-05-10T07:52:53;5.83;;;5.10;;
13026;SDS011;6580;42.680;23.324;2023-05-10T07:55:40;6.77;;;5.63;;
13026;SDS011;6580;42.680;23.324;2023-05-10T07:58:28;7.63;;;6.63;;
13026;SDS011;6580;42.680;23.324;2023-05-10T08:01:15;6.77;;;6.07;;
13026;SDS011;6580;42.680;23.324;2023-05-10T08:04:01;6.13;;;5.57;;
13026;SDS011;6580;42.680;23.324;2023-05-10T08:06:49;10.30;;;6.80;;
13026;SDS011;6580;42.680;23.324;2023-05-10T08:09:36;6.90;;;6.20;;
13026;SDS011;6580;42.680;23.324;2023-05-10T08:12:21;6.10;;;5.47;;
13026;SDS011;6580;42.680;23.324;2023-05-10T08:15:09;9.53;;;5.67;;
13026;SDS011;6580;42.680;23.324;2023-05-10T08:17:57;7.63;;;6.83;;
13026;SDS011;6580;42.680;23.324;2023-05-10T08:20:42;6.67;;;6.00;;
13026;SDS011;6580;42.680;23.324;2023-05-10T08:23:28;9.23;;;5.27;;
13026;SDS011;6580;42.680;23.324;2023-05-10T08:26:15;6.60;;;5.87;;
13026;SDS011;6580;42.680;23.324;2023-05-10T08:29:03;8.20;;;6.03;;
13026;SDS011;6580;42.680;23.324;2023-05-10T08:31:50;8.70;;;6.60;;
13026;SDS011;6580;42.680;23.324;2023-05-10T08:34:36;9.97;;;6.83;;
13026;SDS011;6580;42.680;23.324;2023-05-10T08:37:22;8.47;;;6.80;;
13026;SDS011;6580;42.680;23.324;2023-05-10T08:40:08;9.43;;;7.10;;
13026;SDS011;6580;42.680;23.324;2023-05-10T08:42:58;7.10;;;6.37;;
13026;SDS011;6580;42.680;23.324;2023-05-10T08:45:49;7.33;;;6.60;;
13026;SDS011;6580;42.680;23.324;2023-05-10T08:48:38;7.73;;;7.03;;
13026;SDS011;6580;42.680;23.324;2023-05-10T08:51:25;7.83;;;5.93;;
13026;SDS011;6580;42.680;23.324;2023-05-10T08:54:15;7.37;;;6.67;;
13026;SDS011;6580;42.680;23.324;2023-05-10T08:57:01;7.97;;;7.17;;
13026;SDS011;6580;42.680;23.324;2023-05-10T08:59:47;8.17;;;7.20;;
13026;SDS011;6580;42.680;23.324;2023-05-10T09:02:33;8.57;;;6.90;;
13026;SDS011;6580;42.680;23.324;2023-05-10T09:05:21;7.20;;;5.87;;
13026;SDS011;6580;42.680;23.324;2023-05-10T09:08:07;7.53;;;6.80;;
13026;SDS011;6580;42.680;23.324;2023-05-10T09:10:54;7.37;;;6.53;;
13026;SDS011;6580;42.680;23.324;2023-05-10T09:13:40;7.07;;;6.37;;
13026;SDS011;6580;42.680;23.324;2023-05-10T09:16:31;6.73;;;6.07;;
13026;SDS011;6580;42.680;23.324;2023-05-10T09:19:17;7.57;;;6.70;;
13026;SDS011;6580;42.680;23.324;2023-05-10T09:22:06;7.30;;;6.60;;
13026;SDS011;6580;42.680;23.324;2023-05-10T09:25:03;7.13;;;6.43;;
13026;SDS011;6580;42.680;23.324;2023-05-10T09:27:49;7.20;;;6.50;;
13026;SDS011;6580;42.680;23.324;2023-05-10T09:30:35;7.33;;;6.63;;
13026;SDS011;6580;42.680;23.324;2023-05-10T09:33:23;8.00;;;7.00;;
13026;SDS011;6580;42.680;23.324;2023-05-10T09:36:11;9.27;;;7.13;;
13026;SDS011;6580;42.680;23.324;2023-05-10T09:38:58;7.50;;;6.40;;
13026;SDS011;6580;42.680;23.324;2023-05-10T09:41:43;7.37;;;6.40;;
13026;SDS011;6580;42.680;23.324;2023-05-10T09:44:29;6.93;;;6.30;;
13026;SDS011;6580;42.680;23.324;2023-05-10T09:47:16;5.90;;;5.13;;
13026;SDS011;6580;42.680;23.324;2023-05-10T09:50:03;7.10;;;6.40;;
13026;SDS011;6580;42.680;23.324;2023-05-10T09:52:49;7.73;;;6.23;;
13026;SDS011;6580;42.680;23.324;2023-05-10T09:55:41;7.00;;;6.30;;
13026;SDS011;6580;42.680;23.324;2023-05-10T09:58:29;9.47;;;7.13;;
13026;SDS011;6580;42.680;23.324;2023-05-10T10:01:21;8.47;;;6.47;;
13026;SDS011;6580;42.680;23.324;2023-05-10T10:04:10;8.20;;;7.23;;
13026;SDS011;6580;42.680;23.324;2023-05-10T10:07:00;7.53;;;6.77;;
13026;SDS011;6580;42.680;23.324;2023-05-10T10:09:47;7.27;;;6.67;;
13026;SDS011;6580;42.680;23.324;2023-05-10T10:12:34;6.73;;;5.50;;
13026;SDS011;6580;42.680;23.324;2023-05-10T10:15:20;6.50;;;5.90;;
13026;SDS011;6580;42.680;23.324;2023-05-10T10:18:06;7.00;;;6.40;;
13026;SDS011;6580;42.680;23.324;2023-05-10T10:20:52;9.97;;;6.97;;
13026;SDS011;6580;42.680;23.324;2023-05-10T10:23:45;6.73;;;6.13;;
13026;SDS011;6580;42.680;23.324;2023-05-10T10:26:33;6.33;;;5.63;;
13026;SDS011;6580;42.680;23.324;2023-05-10T10:29:24;5.80;;;5.27;;
13026;SDS011;6580;42.680;23.324;2023-05-10T10:32:21;6.20;;;5.60;;
13026;SDS011;6580;42.680;23.324;2023-05-10T10:35:15;6.40;;;4.83;;
13026;SDS011;6580;42.680;23.324;2023-05-10T10:38:01;6.20;;;5.60;;
13026;SDS011;6580;42.680;23.324;2023-05-10T10:40:47;6.30;;;5.70;;
13026;SDS011;6580;42.680;23.324;2023-05-10T10:43:34;7.13;;;5.80;;
13026;SDS011;6580;42.680;23.324;2023-05-10T10:46:22;6.30;;;5.70;;
13026;SDS011;6580;42.680;23.324;2023-05-10T10:49:08;6.43;;;5.50;;
13026;SDS011;6580;42.680;23.324;2023-05-10T10:55:12;5.30;;;4.90;;
13026;SDS011;6580;42.680;23.324;2023-05-10T10:58:02;5.33;;;4.83;;
13026;SDS011;6580;42.680;23.324;2023-05-10T11:00:49;5.83;;;5.23;;
13026;SDS011;6580;42.680;23.324;2023-05-10T11:03:37;5.70;;;5.07;;
13026;SDS011;6580;42.680;23.324;2023-05-10T11:06:31;6.53;;;4.60;;
13026;SDS011;6580;42.680;23.324;2023-05-10T11:09:17;6.17;;;5.57;;
13026;SDS011;6580;42.680;23.324;2023-05-10T11:12:07;4.90;;;4.40;;
13026;SDS011;6580;42.680;23.324;2023-05-10T11:14:56;5.50;;;4.90;;
13026;SDS011;6580;42.680;23.324;2023-05-10T11:17:42;5.90;;;5.30;;
13026;SDS011;6580;42.680;23.324;2023-05-10T11:20:39;5.43;;;4.83;;
13026;SDS011;6580;42.680;23.324;2023-05-10T11:23:29;4.87;;;4.37;;
13026;SDS011;6580;42.680;23.324;2023-05-10T11:26:16;5.27;;;4.87;;
13026;SDS011;6580;42.680;23.324;2023-05-10T11:29:02;6.40;;;5.10;;
13026;SDS011;6580;42.680;23.324;2023-05-10T11:31:58;6.13;;;5.40;;
13026;SDS011;6580;42.680;23.324;2023-05-10T11:34:46;5.30;;;4.80;;
13026;SDS011;6580;42.680;23.324;2023-05-10T11:37:35;5.70;;;5.10;;
13026;SDS011;6580;42.680;23.324;2023-05-10T11:40:24;5.20;;;4.70;;
13026;SDS011;6580;42.680;23.324;2023-05-10T11:43:10;5.63;;;5.10;;
13026;SDS011;6580;42.680;23.324;2023-05-10T11:45:56;7.10;;;4.30;;
13026;SDS011;6580;42.680;23.324;2023-05-10T11:48:43;4.63;;;4.07;;
13026;SDS011;6580;42.680;23.324;2023-05-10T11:51:29;5.40;;;4.93;;
13026;SDS011;6580;42.680;23.324;2023-05-10T11:54:20;5.73;;;4.60;;
13026;SDS011;6580;42.680;23.324;2023-05-10T11:57:05;4.60;;;4.20;;
13026;SDS011;6580;42.680;23.324;2023-05-10T11:59:52;5.70;;;4.97;;
13026;SDS011;6580;42.680;23.324;2023-05-10T12:02:38;9.07;;;5.00;;
13026;SDS011;6580;42.680;23.324;2023-05-10T12:05:24;6.13;;;5.00;;
13026;SDS011;6580;42.680;23.324;2023-05-10T12:08:10;5.33;;;4.63;;
13026;SDS011;6580;42.680;23.324;2023-05-10T12:11:05;7.30;;;4.87;;
13026;SDS011;6580;42.680;23.324;2023-05-10T12:13:54;5.27;;;4.83;;
13026;SDS011;6580;42.680;23.324;2023-05-10T12:16:42;4.90;;;4.50;;
13026;SDS011;6580;42.680;23.324;2023-05-10T12:19:28;5.30;;;4.80;;
13026;SDS011;6580;42.680;23.324;2023-05-10T12:22:21;5.67;;;5.10;;
13026;SDS011;6580;42.680;23.324;2023-05-10T12:25:08;7.40;;;5.00;;
13026;SDS011;6580;42.680;23.324;2023-05-10T12:27:57;6.70;;;5.17;;
13026;SDS011;6580;42.680;23.324;2023-05-10T12:30:44;5.23;;;4.60;;
13026;SDS011;6580;42.680;23.324;2023-05-10T12:33:35;6.23;;;5.17;;
13026;SDS011;6580;42.680;23.324;2023-05-10T12:36:23;5.53;;;5.03;;
13026;SDS011;6580;42.680;23.324;2023-05-10T12:39:09;6.13;;;5.10;;
13026;SDS011;6580;42.680;23.324;2023-05-10T12:45:02;5.07;;;4.57;;
13026;SDS011;6580;42.680;23.324;2023-05-10T12:47:50;5.20;;;4.77;;
13026;SDS011;6580;42.680;23.324;2023-05-10T12:50:36;6.13;;;5.33;;
13026;SDS011;6580;42.680;23.324;2023-05-10T12:53:21;6.13;;;4.93;;
13026;SDS011;6580;42.680;23.324;2023-05-10T12:56:07;5.37;;;4.87;;
13026;SDS011;6580;42.680;23.324;2023-05-10T12:58:52;5.07;;;4.57;;
13026;SDS011;6580;42.680;23.324;2023-05-10T13:01:40;4.80;;;4.40;;
13026;SDS011;6580;42.680;23.324;2023-05-10T13:04:25;5.20;;;4.70;;
13026;SDS011;6580;42.680;23.324;2023-05-10T13:07:11;5.97;;;4.53;;
13026;SDS011;6580;42.680;23.324;2023-05-10T13:09:57;7.00;;;5.27;;
13026;SDS011;6580;42.680;23.324;2023-05-10T13:12:42;5.87;;;5.13;;
13026;SDS011;6580;42.680;23.324;2023-05-10T13:15:28;6.00;;;5.33;;
13026;SDS011;6580;42.680;23.324;2023-05-10T13:18:16;5.53;;;4.90;;
13026;SDS011;6580;42.680;23.324;2023-05-10T13:21:02;5.33;;;4.83;;
13026;SDS011;6580;42.680;23.324;2023-05-10T13:23:48;5.57;;;5.07;;
13026;SDS011;6580;42.680;23.324;2023-05-10T13:26:34;6.10;;;5.50;;
13026;SDS011;6580;42.680;23.324;2023-05-10T13:29:20;7.33;;;5.90;;
13026;SDS011;6580;42.680;23.324;2023-05-10T13:32:06;6.40;;;5.43;;
13026;SDS011;6580;42.680;23.324;2023-05-10T13:34:55;4.60;;;4.20;;
13026;SDS011;6580;42.680;23.324;2023-05-10T13:37:40;4.87;;;4.37;;
13026;SDS011;6580;42.680;23.324;2023-05-10T13:40:26;4.93;;;3.97;;
13026;SDS011;6580;42.680;23.324;2023-05-10T13:43:13;5.23;;;4.60;;
13026;SDS011;6580;42.680;23.324;2023-05-10T13:46:00;6.20;;;5.57;;
13026;SDS011;6580;42.680;23.324;2023-05-10T13:48:47;5.33;;;4.77;;
13026;SDS011;6580;42.680;23.324;2023-05-10T13:51:35;5.37;;;4.90;;
13026;SDS011;6580;42.680;23.324;2023-05-10T13:54:23;7.70;;;5.20;;
13026;SDS011;6580;42.680;23.324;2023-05-10T13:57:13;5.17;;;4.67;;
13026;SDS011;6580;42.680;23.324;2023-05-10T14:00:03;5.30;;;4.80;;
13026;SDS011;6580;42.680;23.324;2023-05-10T14:02:49;6.43;;;4.97;;
13026;SDS011;6580;42.680;23.324;2023-05-10T14:05:35;6.33;;;5.30;;
13026;SDS011;6580;42.680;23.324;2023-05-10T14:08:23;5.87;;;4.70;;
13026;SDS011;6580;42.680;23.324;2023-05-10T14:11:10;5.57;;;5.00;;
13026;SDS011;6580;42.680;23.324;2023-05-10T14:13:56;6.93;;;5.37;;
13026;SDS011;6580;42.680;23.324;2023-05-10T14:16:42;6.30;;;4.67;;
13026;SDS011;6580;42.680;23.324;2023-05-10T14:19:29;5.30;;;4.73;;
13026;SDS011;6580;42.680;23.324;2023-05-10T14:22:16;5.53;;;4.83;;
13026;SDS011;6580;42.680;23.324;2023-05-10T14:25:03;5.27;;;4.77;;
13026;SDS011;6580;42.680;23.324;2023-05-10T14:27:50;5.43;;;4.77;;
13026;SDS011;6580;42.680;23.324;2023-05-10T14:30:38;5.30;;;4.80;;
13026;SDS011;6580;42.680;23.324;2023-05-10T14:33:26;5.40;;;4.90;;
13026;SDS011;6580;42.680;23.324;2023-05-10T14:36:13;6.10;;;5.00;;
13026;SDS011;6580;42.680;23.324;2023-05-10T14:38:59;5.30;;;4.80;;
13026;SDS011;6580;42.680;23.324;2023-05-10T14:41:46;6.17;;;5.37;;
13026;SDS011;6580;42.680;23.324;2023-05-10T14:44:35;8.67;;;5.00;;
13026;SDS011;6580;42.680;23.324;2023-05-10T14:47:20;9.53;;;5.33;;
13026;SDS011;6580;42.680;23.324;2023-05-10T14:50:08;5.87;;;5.07;;
13026;SDS011;6580;42.680;23.324;2023-05-10T14:56:20;6.80;;;5.03;;
13026;SDS011;6580;42.680;23.324;2023-05-10T14:59:07;5.93;;;5.13;;
13026;SDS011;6580;42.680;23.324;2023-05-10T15:01:54;7.03;;;5.80;;
13026;SDS011;6580;42.680;23.324;2023-05-10T15:04:39;5.87;;;5.30;;
13026;SDS011;6580;42.680;23.324;2023-05-10T15:07:25;5.30;;;4.70;;
13026;SDS011;6580;42.680;23.324;2023-05-10T15:10:15;5.20;;;4.80;;
13026;SDS011;6580;42.680;23.324;2023-05-10T15:13:03;5.20;;;4.70;;
13026;SDS011;6580;42.680;23.324;2023-05-10T15:15:55;6.80;;;5.10;;
13026;SDS011;6580;42.680;23.324;2023-05-10T15:18:40;5.57;;;5.00;;
13026;SDS011;6580;42.680;23.324;2023-05-10T15:21:26;5.83;;;5.07;;
13026;SDS011;6580;42.680;23.324;2023-05-10T15:24:12;6.07;;;5.13;;
13026;SDS011;6580;42.680;23.324;2023-05-10T15:26:57;5.07;;;4.57;;
13026;SDS011;6580;42.680;23.324;2023-05-10T15:29:44;5.80;;;5.03;;
13026;SDS011;6580;42.680;23.324;2023-05-10T15:32:31;5.90;;;5.27;;
13026;SDS011;6580;42.680;23.324;2023-05-10T15:35:16;6.10;;;5.50;;
13026;SDS011;6580;42.680;23.324;2023-05-10T15:38:02;6.57;;;4.77;;
13026;SDS011;6580;42.680;23.324;2023-05-10T15:40:47;5.73;;;5.00;;
13026;SDS011;6580;42.680;23.324;2023-05-10T15:43:33;6.00;;;5.23;;
13026;SDS011;6580;42.680;23.324;2023-05-10T15:46:19;5.57;;;5.07;;
13026;SDS011;6580;42.680;23.324;2023-05-10T15:49:06;5.40;;;4.90;;
13026;SDS011;6580;42.680;23.324;2023-05-10T15:51:53;5.37;;;4.60;;
13026;SDS011;6580;42.680;23.324;2023-05-10T15:54:38;5.07;;;4.57;;
13026;SDS011;6580;42.680;23.324;2023-05-10T15:57:24;5.40;;;4.50;;
13026;SDS011;6580;42.680;23.324;2023-05-10T16:00:10;8.13;;;5.80;;
13026;SDS011;6580;42.680;23.324;2023-05-10T16:02:57;6.60;;;5.90;;
13026;SDS011;6580;42.680;23.324;2023-05-10T16:05:47;5.70;;;4.80;;
13026;SDS011;6580;42.680;23.324;2023-05-10T16:08:36;6.67;;;5.20;;
13026;SDS011;6580;42.680;23.324;2023-05-10T16:11:23;5.27;;;4.83;;
13026;SDS011;6580;42.680;23.324;2023-05-10T16:14:09;7.57;;;6.77;;
13026;SDS011;6580;42.680;23.324;2023-05-10T16:16:55;5.60;;;5.10;;
13026;SDS011;6580;42.680;23.324;2023-05-10T16:19:42;8.53;;;5.90;;
13026;SDS011;6580;42.680;23.324;2023-05-10T16:22:29;6.63;;;5.93;;
13026;SDS011;6580;42.680;23.324;2023-05-10T16:25:15;5.10;;;4.60;;
13026;SDS011;6580;42.680;23.324;2023-05-10T16:28:01;6.53;;;5.70;;
13026;SDS011;6580;42.680;23.324;2023-05-10T16:30:46;7.27;;;5.50;;
13026;SDS011;6580;42.680;23.324;2023-05-10T16:33:50;7.63;;;5.97;;
13026;SDS011;6580;42.680;23.324;2023-05-10T16:36:35;6.93;;;6.27;;
13026;SDS011;6580;42.680;23.324;2023-05-10T16:39:22;6.73;;;5.87;;
13026;SDS011;6580;42.680;23.324;2023-05-10T16:42:07;7.20;;;6.27;;
13026;SDS011;6580;42.680;23.324;2023-05-10T16:44:53;6.07;;;5.57;;
13026;SDS011;6580;42.680;23.324;2023-05-10T16:47:40;8.13;;;5.57;;
13026;SDS011;6580;42.680;23.324;2023-05-10T16:50:27;5.80;;;5.30;;
13026;SDS011;6580;42.680;23.324;2023-05-10T16:53:13;6.27;;;5.27;;
13026;SDS011;6580;42.680;23.324;2023-05-10T16:56:00;7.27;;;6.13;;
13026;SDS011;6580;42.680;23.324;2023-05-10T16:58:45;6.27;;;5.67;;
13026;SDS011;6580;42.680;23.324;2023-05-10T17:01:32;6.63;;;5.93;;
13026;SDS011;6580;42.680;23.324;2023-05-10T17:04:18;6.77;;;5.80;;